createdAt,value
2023-02-04T00:00:14.789Z,10.00
2023-02-04T00:02:41.314Z,10.00
2023-02-04T00:05:07.817Z,10.00
2023-02-04T00:07:34.305Z,10.00
2023-02-04T00:10:00.787Z,10.00
2023-02-04T00:12:27.267Z,10.10
2023-02-04T00:14:53.756Z,10.10
2023-02-04T00:17:20.236Z,10.00
2023-02-04T00:19:46.730Z,10.00
2023-02-04T00:22:13.208Z,10.10
2023-02-04T00:24:39.695Z,10.10
2023-02-04T00:27:06.184Z,10.10
2023-02-04T00:29:32.644Z,10.10
2023-02-04T00:31:59.254Z,10.10
2023-02-04T00:34:25.959Z,10.00
2023-02-04T00:36:52.452Z,10.10
2023-02-04T00:39:24.414Z,10.10
2023-02-04T00:41:50.918Z,10.10
2023-02-04T00:44:17.379Z,10.10
2023-02-04T00:46:43.884Z,10.00
2023-02-04T00:49:10.370Z,10.10
2023-02-04T00:51:36.872Z,10.10
2023-02-04T00:54:03.329Z,10.10
2023-02-04T00:56:29.819Z,10.10
2023-02-04T00:58:56.281Z,10.10
2023-02-04T01:01:22.806Z,10.00
2023-02-04T01:03:49.279Z,10.00
2023-02-04T01:06:15.765Z,10.00
2023-02-04T01:08:42.265Z,10.00
2023-02-04T01:11:08.758Z,10.00
2023-02-04T01:13:35.242Z,10.00
2023-02-04T01:16:01.733Z,10.00
2023-02-04T01:18:28.208Z,10.00
2023-02-04T01:20:54.700Z,10.00
2023-02-04T01:23:21.191Z,10.10
2023-02-04T01:25:47.662Z,10.10
2023-02-04T01:28:14.184Z,10.10
2023-02-04T01:30:40.691Z,10.10
2023-02-04T01:33:07.185Z,10.00
2023-02-04T01:35:33.655Z,10.10
2023-02-04T01:38:00.138Z,10.10
2023-02-04T01:40:26.659Z,10.10
2023-02-04T01:42:53.143Z,10.00
2023-02-04T01:45:19.591Z,10.00
2023-02-04T01:47:46.082Z,10.00
2023-02-04T01:50:12.546Z,10.00
2023-02-04T01:52:39.028Z,10.00
2023-02-04T01:55:05.513Z,10.10
2023-02-04T01:57:31.990Z,10.10
2023-02-04T01:59:58.484Z,10.10
2023-02-04T02:02:24.997Z,10.00
2023-02-04T02:04:51.501Z,10.00
2023-02-04T02:07:17.965Z,10.10
2023-02-04T02:09:44.447Z,10.10
2023-02-04T02:12:10.916Z,10.00
2023-02-04T02:14:37.384Z,10.00
2023-02-04T02:17:03.877Z,10.00
2023-02-04T02:19:30.361Z,10.10
2023-02-04T02:21:56.837Z,10.10
2023-02-04T02:24:23.330Z,10.10
2023-02-04T02:26:49.807Z,10.10
2023-02-04T02:29:16.283Z,10.10
2023-02-04T02:31:42.880Z,10.10
2023-02-04T02:34:09.452Z,10.10
2023-02-04T02:36:35.924Z,10.10
2023-02-04T02:39:02.429Z,10.10
2023-02-04T02:41:28.904Z,10.10
2023-02-04T02:43:55.377Z,10.00
2023-02-04T02:46:21.862Z,10.10
2023-02-04T02:48:48.381Z,10.00
2023-02-04T02:51:14.856Z,10.10
2023-02-04T02:53:41.376Z,10.10
2023-02-04T02:56:07.843Z,10.00
2023-02-04T02:58:34.333Z,10.00
2023-02-04T03:01:00.824Z,10.00
2023-02-04T03:03:27.371Z,10.00
2023-02-04T03:05:53.889Z,10.10
2023-02-04T03:08:20.354Z,10.10
2023-02-04T03:10:46.828Z,10.10
2023-02-04T03:13:13.306Z,10.10
2023-02-04T03:15:39.795Z,10.10
2023-02-04T03:18:06.282Z,10.10
2023-02-04T03:20:32.946Z,10.10
2023-02-04T03:22:59.608Z,10.10
2023-02-04T03:25:26.059Z,10.10
2023-02-04T03:27:52.560Z,10.10
2023-02-04T03:30:19.021Z,10.10
2023-02-04T03:32:45.500Z,10.10
2023-02-04T03:35:11.987Z,10.10
2023-02-04T03:37:38.452Z,10.10
2023-02-04T03:40:04.945Z,10.10
2023-02-04T03:42:31.425Z,10.00
2023-02-04T03:44:57.907Z,10.10
2023-02-04T03:47:24.368Z,10.10
2023-02-04T03:49:50.891Z,10.10
2023-02-04T03:52:17.372Z,10.10
2023-02-04T03:54:43.853Z,10.10
2023-02-04T03:57:10.318Z,10.10
2023-02-04T03:59:36.785Z,10.10
2023-02-04T04:02:03.278Z,10.10
2023-02-04T04:04:30.470Z,10.10
2023-02-04T04:06:56.955Z,10.10
2023-02-04T04:09:23.464Z,10.10
2023-02-04T04:11:49.936Z,10.10
2023-02-04T04:14:16.394Z,10.10
2023-02-04T04:16:42.861Z,10.10
2023-02-04T04:19:09.325Z,10.10
2023-02-04T04:21:35.844Z,10.10
2023-02-04T04:24:02.320Z,10.10
2023-02-04T04:26:28.782Z,10.10
2023-02-04T04:28:55.246Z,10.10
2023-02-04T04:31:21.861Z,10.10
2023-02-04T04:33:48.375Z,10.10
2023-02-04T04:36:14.857Z,10.10
2023-02-04T04:38:41.331Z,10.10
2023-02-04T04:41:07.827Z,10.10
2023-02-04T04:43:34.279Z,10.10
2023-02-04T04:46:00.755Z,10.10
2023-02-04T04:48:27.218Z,10.10
2023-02-04T04:50:53.674Z,10.10
2023-02-04T04:53:20.150Z,10.10
2023-02-04T04:55:46.639Z,10.10
2023-02-04T04:58:13.114Z,10.10
2023-02-04T05:00:39.667Z,10.10
2023-02-04T05:03:06.171Z,10.10
2023-02-04T05:05:32.693Z,10.00
2023-02-04T05:07:59.149Z,10.10
2023-02-04T05:10:25.653Z,10.10
2023-02-04T05:12:52.131Z,10.10
2023-02-04T05:15:18.631Z,10.10
2023-02-04T05:17:45.088Z,10.10
2023-02-04T05:20:11.581Z,10.10
2023-02-04T05:22:38.057Z,10.10
2023-02-04T05:25:04.561Z,10.10
2023-02-04T05:27:31.036Z,10.10
2023-02-04T05:29:57.548Z,10.10
2023-02-04T05:32:24.005Z,10.00
2023-02-04T05:34:50.478Z,10.10
2023-02-04T05:37:16.954Z,10.10
2023-02-04T05:39:43.416Z,10.10
2023-02-04T05:42:09.903Z,10.10
2023-02-04T05:44:36.360Z,10.10
2023-02-04T05:47:02.860Z,10.10
2023-02-04T05:49:29.343Z,10.10
2023-02-04T05:51:55.845Z,10.10
2023-02-04T05:54:22.314Z,10.10
2023-02-04T05:56:48.797Z,10.10
2023-02-04T05:59:15.265Z,10.10
2023-02-04T06:01:41.748Z,10.10
2023-02-04T06:04:08.249Z,10.10
2023-02-04T06:06:34.727Z,10.10
2023-02-04T06:09:01.204Z,10.10
2023-02-04T06:11:27.693Z,10.10
2023-02-04T06:13:54.153Z,10.20
2023-02-04T06:16:20.646Z,10.20
2023-02-04T06:18:47.141Z,10.20
2023-02-04T06:21:13.619Z,10.10
2023-02-04T06:23:40.088Z,10.10
2023-02-04T06:26:06.575Z,10.10
2023-02-04T06:28:33.044Z,10.10
2023-02-04T06:30:59.730Z,10.20
2023-02-04T06:33:26.234Z,10.10
2023-02-04T06:35:52.696Z,10.20
2023-02-04T06:38:19.179Z,10.20
2023-02-04T06:40:45.664Z,10.20
2023-02-04T06:43:12.142Z,10.20
2023-02-04T06:45:38.650Z,10.20
2023-02-04T06:48:05.190Z,10.20
2023-02-04T06:50:31.963Z,10.20
2023-02-04T06:52:58.670Z,10.10
2023-02-04T06:55:25.160Z,10.20
2023-02-04T06:57:51.633Z,10.20
2023-02-04T07:00:18.124Z,10.20
2023-02-04T07:02:44.595Z,10.20
2023-02-04T07:05:11.079Z,10.20
2023-02-04T07:07:37.561Z,10.20
2023-02-04T07:10:04.073Z,10.20
2023-02-04T07:12:30.547Z,10.20
2023-02-04T07:14:57.008Z,10.20
2023-02-04T07:17:23.501Z,10.20
2023-02-04T07:19:49.976Z,10.20
2023-02-04T07:22:16.450Z,10.20
2023-02-04T07:24:42.903Z,10.20
2023-02-04T07:27:09.354Z,10.20
2023-02-04T07:29:35.826Z,10.20
2023-02-04T07:32:02.381Z,10.20
2023-02-04T07:34:28.923Z,10.20
2023-02-04T07:36:55.453Z,10.20
2023-02-04T07:39:21.981Z,10.10
2023-02-04T07:41:48.454Z,10.10
2023-02-04T07:44:14.922Z,10.10
2023-02-04T07:46:41.425Z,10.10
2023-02-04T07:49:07.931Z,10.10
2023-02-04T07:51:34.407Z,10.20
2023-02-04T07:54:00.879Z,10.20
2023-02-04T07:56:27.351Z,10.20
2023-02-04T07:58:53.834Z,10.20
2023-02-04T08:01:20.327Z,10.20
2023-02-04T08:03:46.808Z,10.20
2023-02-04T08:06:13.282Z,10.20
2023-02-04T08:08:39.853Z,10.20
2023-02-04T08:11:06.329Z,10.20
2023-02-04T08:13:32.809Z,10.30
2023-02-04T08:15:59.347Z,10.20
2023-02-04T08:18:25.874Z,10.20
2023-02-04T08:20:52.377Z,10.20
2023-02-04T08:23:18.856Z,10.20
2023-02-04T08:25:45.351Z,10.20
2023-02-04T08:28:11.845Z,10.20
2023-02-04T08:30:38.484Z,10.20
2023-02-04T08:33:04.970Z,10.20
2023-02-04T08:35:31.459Z,10.20
2023-02-04T08:37:57.924Z,10.20
2023-02-04T08:40:24.421Z,10.20
2023-02-04T08:42:50.887Z,10.20
2023-02-04T08:45:17.383Z,10.20
2023-02-04T08:47:43.867Z,10.20
2023-02-04T08:50:10.351Z,10.20
2023-02-04T08:52:36.851Z,10.20
2023-02-04T08:55:03.330Z,10.20
2023-02-04T08:57:29.803Z,10.20
2023-02-04T08:59:56.287Z,10.20
2023-02-04T09:02:22.870Z,10.20
2023-02-04T09:04:49.339Z,10.20
2023-02-04T09:07:15.802Z,10.20
2023-02-04T09:09:42.269Z,10.20
2023-02-04T09:12:08.772Z,10.20
2023-02-04T09:14:35.288Z,10.20
2023-02-04T09:17:01.764Z,10.20
2023-02-04T09:19:28.234Z,10.20
2023-02-04T09:21:54.729Z,10.20
2023-02-04T09:24:21.212Z,10.20
2023-02-04T09:26:47.691Z,10.20
2023-02-04T09:29:14.158Z,10.20
2023-02-04T09:31:40.663Z,10.20
2023-02-04T09:34:07.144Z,10.20
2023-02-04T09:36:33.629Z,10.20
2023-02-04T09:39:00.134Z,10.20
2023-02-04T09:41:26.621Z,10.20
2023-02-04T09:43:53.103Z,10.30
2023-02-04T09:46:19.594Z,10.30
2023-02-04T09:48:46.067Z,10.30
2023-02-04T09:51:12.561Z,10.30
2023-02-04T09:53:39.049Z,10.30
2023-02-04T09:56:05.525Z,10.30
2023-02-04T09:58:31.965Z,10.30
2023-02-04T10:00:58.506Z,10.30
2023-02-04T10:03:25.033Z,10.30
2023-02-04T10:05:51.558Z,10.30
2023-02-04T10:08:18.028Z,10.30
2023-02-04T10:10:44.541Z,10.20
2023-02-04T10:13:11.006Z,10.30
2023-02-04T10:15:37.497Z,10.30
2023-02-04T10:18:03.959Z,10.30
2023-02-04T10:20:30.966Z,10.30
2023-02-04T10:22:57.682Z,10.30
2023-02-04T10:25:24.174Z,10.30
2023-02-04T10:27:50.694Z,10.30
2023-02-04T10:30:17.188Z,10.30
2023-02-04T10:32:43.667Z,10.30
2023-02-04T10:35:10.143Z,10.30
2023-02-04T10:37:36.616Z,10.30
2023-02-04T10:40:03.083Z,10.30
2023-02-04T10:42:29.573Z,10.30
2023-02-04T10:44:56.050Z,10.30
2023-02-04T10:47:22.539Z,10.30
2023-02-04T10:49:50.120Z,10.30
2023-02-04T10:52:16.598Z,10.30
2023-02-04T10:54:43.087Z,10.30
2023-02-04T10:57:09.554Z,10.30
2023-02-04T10:59:36.035Z,10.40
2023-02-04T11:02:02.511Z,10.30
2023-02-04T11:04:28.992Z,10.30
2023-02-04T11:06:55.465Z,10.30
2023-02-04T11:09:21.941Z,10.40
2023-02-04T11:11:48.434Z,10.40
2023-02-04T11:14:14.912Z,10.40
2023-02-04T11:16:41.395Z,10.40
2023-02-04T11:19:07.853Z,10.40
2023-02-04T11:21:34.349Z,10.40
2023-02-04T11:24:00.827Z,10.40
2023-02-04T11:26:27.286Z,10.40
2023-02-04T11:28:53.766Z,10.40
2023-02-04T11:31:20.383Z,10.40
2023-02-04T11:33:46.941Z,10.40
2023-02-04T11:36:13.411Z,10.40
2023-02-04T11:38:39.889Z,10.50
2023-02-04T11:41:06.385Z,10.40
2023-02-04T11:43:32.869Z,10.40
2023-02-04T11:45:59.345Z,10.40
2023-02-04T11:48:25.835Z,10.40
2023-02-04T11:50:52.314Z,10.50
2023-02-04T11:53:18.787Z,10.50
2023-02-04T11:55:47.298Z,10.50
2023-02-04T11:58:14.088Z,10.50
2023-02-04T12:00:40.534Z,10.50
2023-02-04T12:03:06.985Z,10.50
2023-02-04T12:05:33.677Z,10.50
2023-02-04T12:08:00.291Z,10.50
2023-02-04T12:10:26.743Z,10.50
2023-02-04T12:12:53.230Z,10.50
2023-02-04T12:15:19.699Z,10.50
2023-02-04T12:17:46.187Z,10.50
2023-02-04T12:20:12.642Z,10.50
2023-02-04T12:22:39.123Z,10.50
2023-02-04T12:25:05.601Z,10.50
2023-02-04T12:27:32.066Z,10.50
2023-02-04T12:29:58.571Z,10.50
2023-02-04T12:32:25.049Z,10.50
2023-02-04T12:34:51.520Z,10.50
2023-02-04T12:37:17.982Z,10.50
2023-02-04T12:39:44.463Z,10.50
2023-02-04T12:42:10.936Z,10.50
2023-02-04T12:44:37.451Z,10.40
2023-02-04T12:47:03.941Z,10.50
2023-02-04T12:49:30.436Z,10.50
2023-02-04T12:51:56.908Z,10.50
2023-02-04T12:54:23.410Z,10.50
2023-02-04T12:56:49.890Z,10.40
2023-02-04T12:59:16.382Z,10.40
2023-02-04T13:01:42.873Z,10.40
2023-02-04T13:04:09.372Z,10.40
2023-02-04T13:06:35.846Z,10.50
2023-02-04T13:09:02.337Z,10.50
2023-02-04T13:11:28.827Z,10.50
2023-02-04T13:13:55.309Z,10.50
2023-02-04T13:16:21.810Z,10.50
2023-02-04T13:18:48.359Z,10.50
2023-02-04T13:21:14.825Z,10.50
2023-02-04T13:23:41.302Z,10.50
2023-02-04T13:26:07.782Z,10.50
2023-02-04T13:28:34.236Z,10.50
2023-02-04T13:31:01.984Z,10.50
2023-02-04T13:33:29.415Z,10.50
2023-02-04T13:35:55.886Z,10.50
2023-02-04T13:38:22.357Z,10.50
2023-02-04T13:40:48.832Z,10.50
2023-02-04T13:43:15.312Z,10.60
2023-02-04T13:45:41.851Z,10.50
2023-02-04T13:48:08.348Z,10.60
2023-02-04T13:50:35.025Z,10.50
2023-02-04T13:53:01.631Z,10.60
2023-02-04T13:55:28.115Z,10.60
2023-02-04T13:57:54.587Z,10.50
2023-02-04T14:00:21.072Z,10.60
2023-02-04T14:02:47.550Z,10.50
2023-02-04T14:05:14.040Z,10.60
2023-02-04T14:07:40.503Z,10.60
2023-02-04T14:10:07.000Z,10.60
2023-02-04T14:12:33.456Z,10.60
2023-02-04T14:14:59.953Z,10.60
2023-02-04T14:17:26.424Z,10.60
2023-02-04T14:19:52.943Z,10.60
2023-02-04T14:22:19.412Z,10.50
2023-02-04T14:24:45.878Z,10.60
2023-02-04T14:27:12.352Z,10.60
2023-02-04T14:29:38.851Z,10.60
2023-02-04T14:32:05.311Z,10.60
2023-02-04T14:34:31.799Z,10.60
2023-02-04T14:36:58.268Z,10.60
2023-02-04T14:39:24.733Z,10.60
2023-02-04T14:41:51.214Z,10.70
2023-02-04T14:44:17.722Z,10.70
2023-02-04T14:46:44.189Z,10.70
2023-02-04T14:49:10.669Z,10.70
2023-02-04T14:51:37.135Z,10.70
2023-02-04T14:54:03.591Z,10.70
2023-02-04T14:56:30.080Z,10.70
2023-02-04T14:58:56.557Z,10.70
2023-02-04T15:01:23.059Z,10.80
2023-02-04T15:03:49.593Z,10.70
2023-02-04T15:06:16.075Z,10.80
2023-02-04T15:08:42.547Z,10.70
2023-02-04T15:11:09.046Z,10.70
2023-02-04T15:13:35.514Z,10.80
2023-02-04T15:16:01.982Z,10.70
2023-02-04T15:18:28.792Z,10.80
2023-02-04T15:20:55.274Z,10.60
2023-02-04T15:23:21.745Z,10.60
2023-02-04T15:25:48.265Z,10.70
2023-02-04T15:28:14.839Z,10.70
2023-02-04T15:30:41.483Z,10.70
2023-02-04T15:33:07.998Z,10.60
2023-02-04T15:35:34.487Z,10.70
2023-02-04T15:38:00.965Z,10.70
2023-02-04T15:40:27.464Z,10.70
2023-02-04T15:42:53.938Z,10.70
2023-02-04T15:45:20.443Z,10.70
2023-02-04T15:47:46.926Z,10.60
2023-02-04T15:50:13.414Z,10.70
2023-02-04T15:52:39.894Z,10.70
2023-02-04T15:55:06.366Z,10.70
2023-02-04T15:57:32.837Z,10.70
2023-02-04T15:59:59.291Z,10.70
2023-02-04T16:02:25.789Z,10.70
2023-02-04T16:04:52.264Z,10.70
2023-02-04T16:07:18.749Z,10.70
2023-02-04T16:09:45.202Z,10.70
2023-02-04T16:12:11.663Z,10.60
2023-02-04T16:14:38.140Z,10.60
2023-02-04T16:17:04.630Z,10.60
2023-02-04T16:19:31.113Z,10.60
2023-02-04T16:21:57.779Z,10.50
2023-02-04T16:24:24.271Z,10.60
2023-02-04T16:26:50.755Z,10.70
2023-02-04T16:29:17.237Z,10.60
2023-02-04T16:31:43.772Z,10.50
2023-02-04T16:34:10.233Z,10.50
2023-02-04T16:36:36.721Z,10.60
2023-02-04T16:39:03.185Z,10.60
2023-02-04T16:41:29.654Z,10.60
2023-02-04T16:43:56.115Z,10.60
2023-02-04T16:46:22.708Z,10.60
2023-02-04T16:48:49.225Z,10.50
2023-02-04T16:51:15.695Z,10.60
2023-02-04T16:53:42.166Z,10.60
2023-02-04T16:56:08.648Z,10.60
2023-02-04T16:58:35.132Z,10.60
2023-02-04T17:01:01.618Z,10.70
2023-02-04T17:03:28.103Z,10.60
2023-02-04T17:05:54.597Z,10.70
2023-02-04T17:08:21.059Z,10.70
2023-02-04T17:10:47.522Z,10.70
2023-02-04T17:13:13.998Z,10.70
2023-02-04T17:15:40.500Z,10.70
2023-02-04T17:18:06.962Z,10.70
2023-02-04T17:20:33.461Z,10.70
2023-02-04T17:22:59.919Z,10.70
2023-02-04T17:25:26.387Z,10.60
2023-02-04T17:27:52.887Z,10.70
2023-02-04T17:30:19.439Z,10.60
2023-02-04T17:32:45.910Z,10.60
2023-02-04T17:35:12.386Z,10.70
2023-02-04T17:37:38.884Z,10.70
2023-02-04T17:40:05.360Z,10.70
2023-02-04T17:42:31.845Z,10.70
2023-02-04T17:44:58.863Z,10.70
2023-02-04T17:47:25.354Z,10.70
2023-02-04T17:49:52.032Z,10.60
2023-02-04T17:52:18.508Z,10.70
2023-02-04T17:54:44.981Z,10.70
2023-02-04T17:57:11.480Z,10.70
2023-02-04T17:59:37.938Z,10.70
2023-02-04T18:02:04.645Z,10.60
2023-02-04T18:04:31.598Z,10.70
2023-02-04T18:06:58.154Z,10.70
2023-02-04T18:09:24.634Z,10.70
2023-02-04T18:11:51.133Z,10.70
2023-02-04T18:14:17.634Z,10.70
2023-02-04T18:16:44.204Z,10.70
2023-02-04T18:19:10.716Z,10.70
2023-02-04T18:21:37.186Z,10.70
2023-02-04T18:24:03.642Z,10.70
2023-02-04T18:26:30.115Z,10.60
2023-02-04T18:28:56.587Z,10.60
2023-02-04T18:31:23.101Z,10.70
2023-02-04T18:33:49.584Z,10.60
2023-02-04T18:36:16.592Z,10.60
2023-02-04T18:38:43.101Z,10.60
2023-02-04T18:41:09.608Z,10.60
2023-02-04T18:43:36.128Z,10.70
2023-02-04T18:46:02.666Z,10.60
2023-02-04T18:48:29.196Z,10.60
2023-02-04T18:50:55.654Z,10.60
2023-02-04T18:53:22.127Z,10.70
2023-02-04T18:55:48.626Z,10.70
2023-02-04T18:58:15.641Z,10.70
2023-02-04T19:00:42.245Z,10.70
2023-02-04T19:03:08.754Z,10.60
2023-02-04T19:05:35.263Z,10.50
2023-02-04T19:08:01.722Z,10.50
2023-02-04T19:10:28.198Z,10.50
2023-02-04T19:12:54.668Z,10.60
2023-02-04T19:15:21.127Z,10.60
2023-02-04T19:17:47.596Z,10.70
2023-02-04T19:20:14.390Z,10.60
2023-02-04T19:22:40.881Z,10.70
2023-02-04T19:25:07.346Z,10.60
2023-02-04T19:27:33.848Z,10.70
2023-02-04T19:30:00.352Z,10.60
2023-02-04T19:32:26.829Z,10.60
2023-02-04T19:34:53.305Z,10.60
2023-02-04T19:37:19.799Z,10.70
2023-02-04T19:39:46.284Z,10.70
2023-02-04T19:42:12.793Z,10.70
2023-02-04T19:44:39.287Z,10.70
2023-02-04T19:47:05.887Z,10.70
2023-02-04T19:49:32.370Z,10.70
2023-02-04T19:51:58.858Z,10.70
2023-02-04T19:54:25.354Z,10.70
2023-02-04T19:56:51.844Z,10.70
2023-02-04T19:59:18.334Z,10.70
2023-02-04T20:01:44.820Z,10.70
2023-02-04T20:04:11.286Z,10.70
2023-02-04T20:06:37.763Z,10.70
2023-02-04T20:09:04.257Z,10.60
2023-02-04T20:11:30.738Z,10.70
2023-02-04T20:13:57.161Z,10.60
2023-02-04T20:16:23.649Z,10.70
2023-02-04T20:18:50.137Z,10.70
2023-02-04T20:21:16.630Z,10.70
2023-02-04T20:23:43.123Z,10.70
2023-02-04T20:26:09.614Z,10.70
2023-02-04T20:28:36.132Z,10.70
2023-02-04T20:31:02.738Z,10.70
2023-02-04T20:33:29.287Z,10.60
2023-02-04T20:35:55.764Z,10.70
2023-02-04T20:38:22.242Z,10.60
2023-02-04T20:40:48.708Z,10.70
2023-02-04T20:43:15.211Z,10.70
2023-02-04T20:45:41.661Z,10.70
2023-02-04T20:48:08.139Z,10.70
2023-02-04T20:50:34.605Z,10.60
2023-02-04T20:53:01.115Z,10.70
2023-02-04T20:55:27.576Z,10.70
2023-02-04T20:57:54.080Z,10.70
2023-02-04T21:00:20.592Z,10.60
2023-02-04T21:02:47.120Z,10.70
2023-02-04T21:05:13.586Z,10.70
2023-02-04T21:07:40.075Z,10.70
2023-02-04T21:10:06.560Z,10.70
2023-02-04T21:12:33.067Z,10.70
2023-02-04T21:14:59.527Z,10.70
2023-02-04T21:17:26.035Z,10.60
2023-02-04T21:19:52.488Z,10.60
2023-02-04T21:22:18.984Z,10.60
2023-02-04T21:24:45.472Z,10.60
2023-02-04T21:27:11.968Z,10.60
2023-02-04T21:29:38.495Z,10.70
2023-02-04T21:32:05.000Z,10.70
2023-02-04T21:34:31.514Z,10.70
2023-02-04T21:36:58.014Z,10.70
2023-02-04T21:39:24.478Z,10.60
2023-02-04T21:41:50.956Z,10.70
2023-02-04T21:44:17.433Z,10.70
2023-02-04T21:46:43.938Z,10.70
2023-02-04T21:49:10.426Z,10.70
2023-02-04T21:51:36.912Z,10.70
2023-02-04T21:54:03.394Z,10.60
2023-02-04T21:56:29.856Z,10.70
2023-02-04T21:58:56.366Z,10.60
2023-02-04T22:01:22.909Z,10.60
2023-02-04T22:03:49.469Z,10.60
2023-02-04T22:06:15.959Z,10.70
2023-02-04T22:08:42.444Z,10.60
2023-02-04T22:11:08.929Z,10.60
2023-02-04T22:13:35.410Z,10.70
2023-02-04T22:16:01.907Z,10.60
2023-02-04T22:18:28.434Z,10.70
2023-02-04T22:20:54.932Z,10.70
2023-02-04T22:23:21.401Z,10.60
2023-02-04T22:25:47.887Z,10.70
2023-02-04T22:28:14.421Z,10.70
2023-02-04T22:30:40.948Z,10.70
2023-02-04T22:33:07.463Z,10.70
2023-02-04T22:35:34.271Z,10.70
2023-02-04T22:38:02.147Z,10.70
2023-02-04T22:40:28.725Z,10.60
2023-02-04T22:42:55.206Z,10.60
2023-02-04T22:45:21.685Z,10.70
2023-02-04T22:47:48.164Z,10.60
2023-02-04T22:50:14.632Z,10.60
2023-02-04T22:52:42.990Z,10.60
2023-02-04T22:55:10.301Z,10.70
2023-02-04T22:57:36.781Z,10.60
2023-02-04T23:00:03.278Z,10.60
2023-02-04T23:02:29.753Z,10.60
2023-02-04T23:04:56.261Z,10.60
2023-02-04T23:07:22.751Z,10.70
2023-02-04T23:09:49.256Z,10.70
2023-02-04T23:12:15.733Z,10.60
2023-02-04T23:14:42.234Z,10.60
2023-02-04T23:17:08.697Z,10.60
2023-02-04T23:19:35.177Z,10.60
2023-02-04T23:22:01.658Z,10.60
2023-02-04T23:24:28.178Z,10.60
2023-02-04T23:26:54.649Z,10.60
2023-02-04T23:29:21.128Z,10.60
2023-02-04T23:31:47.655Z,10.60
2023-02-04T23:34:14.247Z,10.60
2023-02-04T23:36:40.723Z,10.60
2023-02-04T23:39:07.192Z,10.70
2023-02-04T23:41:33.690Z,10.70
2023-02-04T23:44:00.160Z,10.60
2023-02-04T23:46:26.624Z,10.60
2023-02-04T23:48:53.079Z,10.60
2023-02-04T23:51:19.583Z,10.60
2023-02-04T23:53:46.070Z,10.70
2023-02-04T23:56:12.566Z,10.60
2023-02-04T23:58:39.038Z,10.60
